sensor_id;sensor_type;location;lat;lon;timestamp;temperature;humidity
80495;DHT22;69819;48.798;11.770;2023-07-22T00:01:02;19.20;43.50
80495;DHT22;69819;48.798;11.770;2023-07-22T00:03:28;19.20;43.60
80495;DHT22;69819;48.798;11.770;2023-07-22T00:06:08;19.20;43.60
80495;DHT22;69819;48.798;11.770;2023-07-22T00:08:36;19.20;44.60
80495;DHT22;69819;48.798;11.770;2023-07-22T00:11:07;19.10;43.60
80495;DHT22;69819;48.798;11.770;2023-07-22T00:13:34;19.10;44.00
80495;DHT22;69819;48.798;11.770;2023-07-22T00:16:00;19.10;43.80
80495;DHT22;69819;48.798;11.770;2023-07-22T00:18:27;19.00;43.90
80495;DHT22;69819;48.798;11.770;2023-07-22T00:20:54;19.00;44.00
80495;DHT22;69819;48.798;11.770;2023-07-22T00:23:21;19.00;44.10
80495;DHT22;69819;48.798;11.770;2023-07-22T00:25:47;19.00;44.10
80495;DHT22;69819;48.798;11.770;2023-07-22T00:28:14;18.90;44.10
80495;DHT22;69819;48.798;11.770;2023-07-22T00:30:40;18.90;44.20
80495;DHT22;69819;48.798;11.770;2023-07-22T00:33:07;18.90;44.30
80495;DHT22;69819;48.798;11.770;2023-07-22T00:35:33;18.80;44.30
80495;DHT22;69819;48.798;11.770;2023-07-22T00:38:03;18.80;44.40
80495;DHT22;69819;48.798;11.770;2023-07-22T00:40:29;18.80;44.60
80495;DHT22;69819;48.798;11.770;2023-07-22T00:42:57;18.70;44.30
80495;DHT22;69819;48.798;11.770;2023-07-22T00:45:24;18.70;44.30
80495;DHT22;69819;48.798;11.770;2023-07-22T00:47:50;18.70;44.40
80495;DHT22;69819;48.798;11.770;2023-07-22T00:50:16;18.60;44.50
80495;DHT22;69819;48.798;11.770;2023-07-22T00:52:42;18.60;44.70
80495;DHT22;69819;48.798;11.770;2023-07-22T00:55:09;18.60;44.70
80495;DHT22;69819;48.798;11.770;2023-07-22T00:57:36;18.60;44.80
80495;DHT22;69819;48.798;11.770;2023-07-22T01:00:03;18.60;44.90
80495;DHT22;69819;48.798;11.770;2023-07-22T01:02:31;18.60;45.00
80495;DHT22;69819;48.798;11.770;2023-07-22T01:04:57;18.50;44.90
80495;DHT22;69819;48.798;11.770;2023-07-22T01:07:23;18.50;45.00
80495;DHT22;69819;48.798;11.770;2023-07-22T01:09:56;18.50;45.10
80495;DHT22;69819;48.798;11.770;2023-07-22T01:12:23;18.40;45.40
80495;DHT22;69819;48.798;11.770;2023-07-22T01:14:50;18.50;45.20
80495;DHT22;69819;48.798;11.770;2023-07-22T01:17:16;18.40;45.20
80495;DHT22;69819;48.798;11.770;2023-07-22T01:19:43;18.40;45.30
80495;DHT22;69819;48.798;11.770;2023-07-22T01:22:09;18.40;45.40
80495;DHT22;69819;48.798;11.770;2023-07-22T01:24:38;18.30;45.30
80495;DHT22;69819;48.798;11.770;2023-07-22T01:27:05;18.30;45.40
80495;DHT22;69819;48.798;11.770;2023-07-22T01:29:34;18.30;45.40
80495;DHT22;69819;48.798;11.770;2023-07-22T01:32:01;18.30;45.50
80495;DHT22;69819;48.798;11.770;2023-07-22T01:34:27;18.20;45.40
80495;DHT22;69819;48.798;11.770;2023-07-22T01:36:55;18.20;45.40
80495;DHT22;69819;48.798;11.770;2023-07-22T01:39:21;18.20;45.60
80495;DHT22;69819;48.798;11.770;2023-07-22T01:41:47;18.10;45.60
80495;DHT22;69819;48.798;11.770;2023-07-22T01:44:14;18.10;45.60
80495;DHT22;69819;48.798;11.770;2023-07-22T01:46:40;18.10;45.70
80495;DHT22;69819;48.798;11.770;2023-07-22T01:49:12;18.10;45.80
80495;DHT22;69819;48.798;11.770;2023-07-22T01:51:39;18.10;46.20
80495;DHT22;69819;48.798;11.770;2023-07-22T01:54:08;18.00;45.90
80495;DHT22;69819;48.798;11.770;2023-07-22T01:56:38;18.00;45.90
80495;DHT22;69819;48.798;11.770;2023-07-22T01:59:05;18.00;46.00
80495;DHT22;69819;48.798;11.770;2023-07-22T02:01:31;18.00;46.20
80495;DHT22;69819;48.798;11.770;2023-07-22T02:03:58;18.00;46.30
80495;DHT22;69819;48.798;11.770;2023-07-22T02:06:24;18.00;46.20
80495;DHT22;69819;48.798;11.770;2023-07-22T02:08:49;18.00;46.30
80495;DHT22;69819;48.798;11.770;2023-07-22T02:11:16;18.00;46.30
80495;DHT22;69819;48.798;11.770;2023-07-22T02:13:43;17.90;46.40
80495;DHT22;69819;48.798;11.770;2023-07-22T02:16:09;17.90;46.30
80495;DHT22;69819;48.798;11.770;2023-07-22T02:18:38;17.90;46.40
80495;DHT22;69819;48.798;11.770;2023-07-22T02:21:03;17.90;46.50
80495;DHT22;69819;48.798;11.770;2023-07-22T02:23:29;17.80;46.50
80495;DHT22;69819;48.798;11.770;2023-07-22T02:25:55;17.80;46.50
80495;DHT22;69819;48.798;11.770;2023-07-22T02:28:21;17.80;46.40
80495;DHT22;69819;48.798;11.770;2023-07-22T02:30:50;17.70;46.50
80495;DHT22;69819;48.798;11.770;2023-07-22T02:33:18;17.70;46.70
80495;DHT22;69819;48.798;11.770;2023-07-22T02:35:45;17.70;46.70
80495;DHT22;69819;48.798;11.770;2023-07-22T02:38:13;17.60;46.70
80495;DHT22;69819;48.798;11.770;2023-07-22T02:40:40;17.60;46.70
80495;DHT22;69819;48.798;11.770;2023-07-22T02:43:06;17.60;46.90
80495;DHT22;69819;48.798;11.770;2023-07-22T02:45:33;17.50;46.80
80495;DHT22;69819;48.798;11.770;2023-07-22T02:48:00;17.50;46.90
80495;DHT22;69819;48.798;11.770;2023-07-22T02:50:26;17.50;47.00
80495;DHT22;69819;48.798;11.770;2023-07-22T02:52:52;17.50;47.10
80495;DHT22;69819;48.798;11.770;2023-07-22T02:55:18;17.40;47.10
80495;DHT22;69819;48.798;11.770;2023-07-22T02:57:44;17.40;47.20
80495;DHT22;69819;48.798;11.770;2023-07-22T03:00:12;17.40;47.30
80495;DHT22;69819;48.798;11.770;2023-07-22T03:02:42;17.40;47.40
80495;DHT22;69819;48.798;11.770;2023-07-22T03:05:09;17.40;47.40
80495;DHT22;69819;48.798;11.770;2023-07-22T03:07:38;17.40;47.40
80495;DHT22;69819;48.798;11.770;2023-07-22T03:10:06;17.40;47.50
80495;DHT22;69819;48.798;11.770;2023-07-22T03:12:33;17.30;47.50
80495;DHT22;69819;48.798;11.770;2023-07-22T03:15:00;17.30;47.50
80495;DHT22;69819;48.798;11.770;2023-07-22T03:17:26;17.30;47.50
80495;DHT22;69819;48.798;11.770;2023-07-22T03:19:52;17.30;47.50
80495;DHT22;69819;48.798;11.770;2023-07-22T03:22:18;17.20;47.40
80495;DHT22;69819;48.798;11.770;2023-07-22T03:24:46;17.20;47.50
80495;DHT22;69819;48.798;11.770;2023-07-22T03:27:14;17.20;47.50
80495;DHT22;69819;48.798;11.770;2023-07-22T03:29:41;17.20;47.80
80495;DHT22;69819;48.798;11.770;2023-07-22T03:32:07;17.10;47.80
80495;DHT22;69819;48.798;11.770;2023-07-22T03:34:34;17.20;47.80
80495;DHT22;69819;48.798;11.770;2023-07-22T03:37:00;17.10;47.90
80495;DHT22;69819;48.798;11.770;2023-07-22T03:39:26;17.10;47.90
80495;DHT22;69819;48.798;11.770;2023-07-22T03:41:52;17.10;48.00
80495;DHT22;69819;48.798;11.770;2023-07-22T03:44:18;17.00;48.00
80495;DHT22;69819;48.798;11.770;2023-07-22T03:46:44;17.00;48.10
80495;DHT22;69819;48.798;11.770;2023-07-22T03:49:09;17.00;48.10
80495;DHT22;69819;48.798;11.770;2023-07-22T03:51:35;17.00;48.20
80495;DHT22;69819;48.798;11.770;2023-07-22T03:54:01;17.00;48.20
80495;DHT22;69819;48.798;11.770;2023-07-22T03:56:27;17.00;48.30
80495;DHT22;69819;48.798;11.770;2023-07-22T03:58:53;17.10;48.40
80495;DHT22;69819;48.798;11.770;2023-07-22T04:01:19;17.20;48.50
80495;DHT22;69819;48.798;11.770;2023-07-22T04:03:45;17.30;48.50
80495;DHT22;69819;48.798;11.770;2023-07-22T04:06:11;17.50;48.80
80495;DHT22;69819;48.798;11.770;2023-07-22T04:08:37;17.60;48.80
80495;DHT22;69819;48.798;11.770;2023-07-22T04:11:03;17.90;49.00
80495;DHT22;69819;48.798;11.770;2023-07-22T04:13:29;18.10;48.90
80495;DHT22;69819;48.798;11.770;2023-07-22T04:15:55;18.40;48.90
80495;DHT22;69819;48.798;11.770;2023-07-22T04:18:21;18.80;49.00
80495;DHT22;69819;48.798;11.770;2023-07-22T04:20:47;19.10;48.90
80495;DHT22;69819;48.798;11.770;2023-07-22T04:23:13;19.50;49.00
80495;DHT22;69819;48.798;11.770;2023-07-22T04:25:43;19.90;48.80
80495;DHT22;69819;48.798;11.770;2023-07-22T04:28:10;20.30;48.60
80495;DHT22;69819;48.798;11.770;2023-07-22T04:30:37;20.80;48.50
80495;DHT22;69819;48.798;11.770;2023-07-22T04:33:05;21.20;48.40
80495;DHT22;69819;48.798;11.770;2023-07-22T04:35:38;21.70;48.00
80495;DHT22;69819;48.798;11.770;2023-07-22T04:38:07;22.20;47.70
80495;DHT22;69819;48.798;11.770;2023-07-22T04:40:32;22.70;47.50
80495;DHT22;69819;48.798;11.770;2023-07-22T04:42:58;23.10;47.30
80495;DHT22;69819;48.798;11.770;2023-07-22T04:45:24;23.70;47.10
80495;DHT22;69819;48.798;11.770;2023-07-22T04:47:50;24.10;46.80
80495;DHT22;69819;48.798;11.770;2023-07-22T04:50:17;24.60;46.60
80495;DHT22;69819;48.798;11.770;2023-07-22T04:52:46;25.10;46.30
80495;DHT22;69819;48.798;11.770;2023-07-22T04:55:13;25.60;45.70
80495;DHT22;69819;48.798;11.770;2023-07-22T04:57:41;26.10;44.90
80495;DHT22;69819;48.798;11.770;2023-07-22T05:00:14;26.40;44.10
80495;DHT22;69819;48.798;11.770;2023-07-22T05:02:46;26.80;43.40
80495;DHT22;69819;48.798;11.770;2023-07-22T05:05:16;27.10;43.30
80495;DHT22;69819;48.798;11.770;2023-07-22T05:07:42;27.40;43.10
80495;DHT22;69819;48.798;11.770;2023-07-22T05:10:09;27.90;43.10
80495;DHT22;69819;48.798;11.770;2023-07-22T05:12:38;28.30;42.90
80495;DHT22;69819;48.798;11.770;2023-07-22T05:15:05;28.80;42.80
80495;DHT22;69819;48.798;11.770;2023-07-22T05:17:32;29.30;42.10
80495;DHT22;69819;48.798;11.770;2023-07-22T05:19:58;29.80;41.70
80495;DHT22;69819;48.798;11.770;2023-07-22T05:22:24;30.30;41.30
80495;DHT22;69819;48.798;11.770;2023-07-22T05:24:50;30.80;40.70
80495;DHT22;69819;48.798;11.770;2023-07-22T05:27:17;31.30;40.30
80495;DHT22;69819;48.798;11.770;2023-07-22T05:29:43;31.90;39.90
80495;DHT22;69819;48.798;11.770;2023-07-22T05:32:10;32.40;39.30
80495;DHT22;69819;48.798;11.770;2023-07-22T05:34:36;32.90;38.80
80495;DHT22;69819;48.798;11.770;2023-07-22T05:37:02;33.40;38.30
80495;DHT22;69819;48.798;11.770;2023-07-22T05:39:28;33.90;37.80
80495;DHT22;69819;48.798;11.770;2023-07-22T05:41:54;34.30;37.00
80495;DHT22;69819;48.798;11.770;2023-07-22T05:44:21;34.80;36.80
80495;DHT22;69819;48.798;11.770;2023-07-22T05:46:46;35.20;36.30
80495;DHT22;69819;48.798;11.770;2023-07-22T05:49:12;35.70;35.90
80495;DHT22;69819;48.798;11.770;2023-07-22T05:51:38;36.00;35.40
80495;DHT22;69819;48.798;11.770;2023-07-22T05:54:04;36.50;34.90
80495;DHT22;69819;48.798;11.770;2023-07-22T05:56:30;36.90;34.40
80495;DHT22;69819;48.798;11.770;2023-07-22T05:58:57;37.30;34.40
80495;DHT22;69819;48.798;11.770;2023-07-22T06:01:23;37.60;33.30
80495;DHT22;69819;48.798;11.770;2023-07-22T06:03:52;37.90;32.80
80495;DHT22;69819;48.798;11.770;2023-07-22T06:06:18;38.40;32.50
80495;DHT22;69819;48.798;11.770;2023-07-22T06:08:44;38.70;32.10
80495;DHT22;69819;48.798;11.770;2023-07-22T06:11:10;39.00;31.70
80495;DHT22;69819;48.798;11.770;2023-07-22T06:13:36;39.30;31.20
80495;DHT22;69819;48.798;11.770;2023-07-22T06:16:03;39.70;30.80
80495;DHT22;69819;48.798;11.770;2023-07-22T06:18:29;40.00;30.50
80495;DHT22;69819;48.798;11.770;2023-07-22T06:20:55;40.30;30.00
80495;DHT22;69819;48.798;11.770;2023-07-22T06:23:21;40.60;29.80
80495;DHT22;69819;48.798;11.770;2023-07-22T06:25:47;40.90;29.60
80495;DHT22;69819;48.798;11.770;2023-07-22T06:28:12;41.10;29.30
80495;DHT22;69819;48.798;11.770;2023-07-22T06:30:38;41.30;29.00
80495;DHT22;69819;48.798;11.770;2023-07-22T06:33:04;41.60;28.80
80495;DHT22;69819;48.798;11.770;2023-07-22T06:35:30;41.90;29.00
80495;DHT22;69819;48.798;11.770;2023-07-22T06:37:56;42.20;28.30
80495;DHT22;69819;48.798;11.770;2023-07-22T06:40:22;42.50;28.60
80495;DHT22;69819;48.798;11.770;2023-07-22T06:42:47;42.70;27.80
80495;DHT22;69819;48.798;11.770;2023-07-22T06:45:13;42.90;27.60
80495;DHT22;69819;48.798;11.770;2023-07-22T06:47:39;43.20;27.40
80495;DHT22;69819;48.798;11.770;2023-07-22T06:50:05;43.40;27.10
80495;DHT22;69819;48.798;11.770;2023-07-22T06:52:32;43.60;26.80
80495;DHT22;69819;48.798;11.770;2023-07-22T06:54:58;43.90;26.60
80495;DHT22;69819;48.798;11.770;2023-07-22T06:57:24;44.10;26.30
80495;DHT22;69819;48.798;11.770;2023-07-22T06:59:53;44.30;26.10
80495;DHT22;69819;48.798;11.770;2023-07-22T07:02:20;44.40;25.70
80495;DHT22;69819;48.798;11.770;2023-07-22T07:04:46;44.60;25.60
80495;DHT22;69819;48.798;11.770;2023-07-22T07:07:13;44.80;25.50
80495;DHT22;69819;48.798;11.770;2023-07-22T07:09:40;45.00;25.40
80495;DHT22;69819;48.798;11.770;2023-07-22T07:12:06;45.20;25.20
80495;DHT22;69819;48.798;11.770;2023-07-22T07:14:33;45.30;25.00
80495;DHT22;69819;48.798;11.770;2023-07-22T07:16:59;45.60;24.80
80495;DHT22;69819;48.798;11.770;2023-07-22T07:19:26;45.80;24.70
80495;DHT22;69819;48.798;11.770;2023-07-22T07:21:53;46.00;24.40
80495;DHT22;69819;48.798;11.770;2023-07-22T07:24:19;46.20;24.20
80495;DHT22;69819;48.798;11.770;2023-07-22T07:26:45;46.30;24.10
80495;DHT22;69819;48.798;11.770;2023-07-22T07:29:11;46.50;24.00
80495;DHT22;69819;48.798;11.770;2023-07-22T07:31:38;46.70;23.70
80495;DHT22;69819;48.798;11.770;2023-07-22T07:34:04;46.80;23.60
80495;DHT22;69819;48.798;11.770;2023-07-22T07:36:34;47.00;23.50
80495;DHT22;69819;48.798;11.770;2023-07-22T07:39:00;47.10;23.30
80495;DHT22;69819;48.798;11.770;2023-07-22T07:41:27;47.30;23.20
80495;DHT22;69819;48.798;11.770;2023-07-22T07:43:53;47.40;23.00
80495;DHT22;69819;48.798;11.770;2023-07-22T07:46:29;47.60;22.90
80495;DHT22;69819;48.798;11.770;2023-07-22T07:48:57;47.70;22.30
80495;DHT22;69819;48.798;11.770;2023-07-22T07:51:26;47.80;22.50
80495;DHT22;69819;48.798;11.770;2023-07-22T07:53:55;47.90;22.50
80495;DHT22;69819;48.798;11.770;2023-07-22T07:56:23;47.90;22.20
80495;DHT22;69819;48.798;11.770;2023-07-22T07:58:52;48.00;22.00
80495;DHT22;69819;48.798;11.770;2023-07-22T08:01:19;48.00;21.90
80495;DHT22;69819;48.798;11.770;2023-07-22T08:03:46;48.10;21.80
80495;DHT22;69819;48.798;11.770;2023-07-22T08:06:12;48.00;21.80
80495;DHT22;69819;48.798;11.770;2023-07-22T08:08:39;48.10;21.60
80495;DHT22;69819;48.798;11.770;2023-07-22T08:11:09;48.10;21.40
80495;DHT22;69819;48.798;11.770;2023-07-22T08:13:39;48.10;21.40
80495;DHT22;69819;48.798;11.770;2023-07-22T08:16:08;48.20;21.50
80495;DHT22;69819;48.798;11.770;2023-07-22T08:18:36;48.30;21.30
80495;DHT22;69819;48.798;11.770;2023-07-22T08:21:04;48.40;21.30
80495;DHT22;69819;48.798;11.770;2023-07-22T08:23:31;48.40;21.20
80495;DHT22;69819;48.798;11.770;2023-07-22T08:25:58;48.40;21.50
80495;DHT22;69819;48.798;11.770;2023-07-22T08:28:23;48.50;21.00
80495;DHT22;69819;48.798;11.770;2023-07-22T08:30:50;48.60;20.80
80495;DHT22;69819;48.798;11.770;2023-07-22T08:33:16;48.60;20.70
80495;DHT22;69819;48.798;11.770;2023-07-22T08:35:42;48.70;20.60
80495;DHT22;69819;48.798;11.770;2023-07-22T08:38:08;48.70;20.60
80495;DHT22;69819;48.798;11.770;2023-07-22T08:40:39;48.80;20.40
80495;DHT22;69819;48.798;11.770;2023-07-22T08:43:08;48.80;20.10
80495;DHT22;69819;48.798;11.770;2023-07-22T08:45:38;48.80;20.10
80495;DHT22;69819;48.798;11.770;2023-07-22T08:48:09;48.80;19.80
80495;DHT22;69819;48.798;11.770;2023-07-22T08:50:59;48.70;19.80
80495;DHT22;69819;48.798;11.770;2023-07-22T08:53:30;48.60;19.90
80495;DHT22;69819;48.798;11.770;2023-07-22T08:55:58;48.50;19.80
80495;DHT22;69819;48.798;11.770;2023-07-22T08:58:25;48.40;19.70
80495;DHT22;69819;48.798;11.770;2023-07-22T09:00:52;48.20;19.60
80495;DHT22;69819;48.798;11.770;2023-07-22T09:03:19;48.00;19.80
80495;DHT22;69819;48.798;11.770;2023-07-22T09:05:45;48.00;19.70
80495;DHT22;69819;48.798;11.770;2023-07-22T09:08:13;48.00;19.70
80495;DHT22;69819;48.798;11.770;2023-07-22T09:10:39;47.90;19.60
80495;DHT22;69819;48.798;11.770;2023-07-22T09:13:06;47.90;19.60
80495;DHT22;69819;48.798;11.770;2023-07-22T09:15:35;47.70;19.60
80495;DHT22;69819;48.798;11.770;2023-07-22T09:18:05;47.60;19.50
80495;DHT22;69819;48.798;11.770;2023-07-22T09:20:31;47.60;19.40
80495;DHT22;69819;48.798;11.770;2023-07-22T09:22:59;47.30;19.20
80495;DHT22;69819;48.798;11.770;2023-07-22T09:25:27;47.10;19.30
80495;DHT22;69819;48.798;11.770;2023-07-22T09:27:55;46.90;19.30
80495;DHT22;69819;48.798;11.770;2023-07-22T09:30:33;46.80;19.40
80495;DHT22;69819;48.798;11.770;2023-07-22T09:33:06;46.70;19.30
80495;DHT22;69819;48.798;11.770;2023-07-22T09:35:49;46.50;19.10
80495;DHT22;69819;48.798;11.770;2023-07-22T09:38:25;46.20;19.00
80495;DHT22;69819;48.798;11.770;2023-07-22T09:40:52;45.70;18.70
80495;DHT22;69819;48.798;11.770;2023-07-22T09:43:18;45.10;18.80
80495;DHT22;69819;48.798;11.770;2023-07-22T09:45:47;44.50;18.80
80495;DHT22;69819;48.798;11.770;2023-07-22T09:48:14;44.10;19.00
80495;DHT22;69819;48.798;11.770;2023-07-22T09:50:40;43.50;19.20
80495;DHT22;69819;48.798;11.770;2023-07-22T09:53:07;43.20;19.30
80495;DHT22;69819;48.798;11.770;2023-07-22T09:55:33;43.00;19.60
80495;DHT22;69819;48.798;11.770;2023-07-22T09:58:04;42.90;19.80
80495;DHT22;69819;48.798;11.770;2023-07-22T10:00:37;42.90;19.90
80495;DHT22;69819;48.798;11.770;2023-07-22T10:03:09;42.90;20.10
80495;DHT22;69819;48.798;11.770;2023-07-22T10:05:38;42.90;19.50
80495;DHT22;69819;48.798;11.770;2023-07-22T10:08:06;42.80;19.60
80495;DHT22;69819;48.798;11.770;2023-07-22T10:10:34;42.70;19.70
80495;DHT22;69819;48.798;11.770;2023-07-22T10:13:03;42.50;19.50
80495;DHT22;69819;48.798;11.770;2023-07-22T10:15:34;42.30;19.30
80495;DHT22;69819;48.798;11.770;2023-07-22T10:18:04;42.00;19.30
80495;DHT22;69819;48.798;11.770;2023-07-22T10:20:34;41.70;19.30
80495;DHT22;69819;48.798;11.770;2023-07-22T10:23:02;41.40;19.50
80495;DHT22;69819;48.798;11.770;2023-07-22T10:25:30;41.20;19.70
80495;DHT22;69819;48.798;11.770;2023-07-22T10:27:56;40.90;19.70
80495;DHT22;69819;48.798;11.770;2023-07-22T10:30:22;40.80;19.80
80495;DHT22;69819;48.798;11.770;2023-07-22T10:32:52;40.70;19.90
80495;DHT22;69819;48.798;11.770;2023-07-22T10:38:13;40.50;19.80
80495;DHT22;69819;48.798;11.770;2023-07-22T10:40:49;40.40;20.10
80495;DHT22;69819;48.798;11.770;2023-07-22T10:43:18;40.30;19.90
80495;DHT22;69819;48.798;11.770;2023-07-22T10:45:51;40.10;19.90
80495;DHT22;69819;48.798;11.770;2023-07-22T10:48:19;39.90;20.00
80495;DHT22;69819;48.798;11.770;2023-07-22T10:50:48;39.50;19.90
80495;DHT22;69819;48.798;11.770;2023-07-22T11:01:32;38.00;20.50
80495;DHT22;69819;48.798;11.770;2023-07-22T11:06:58;37.20;20.80
80495;DHT22;69819;48.798;11.770;2023-07-22T11:14:34;36.60;21.50
80495;DHT22;69819;48.798;11.770;2023-07-22T11:17:04;36.40;21.50
80495;DHT22;69819;48.798;11.770;2023-07-22T11:19:37;36.30;21.50
80495;DHT22;69819;48.798;11.770;2023-07-22T11:22:04;36.10;21.50
80495;DHT22;69819;48.798;11.770;2023-07-22T11:24:33;36.00;21.80
80495;DHT22;69819;48.798;11.770;2023-07-22T11:27:05;35.80;21.70
80495;DHT22;69819;48.798;11.770;2023-07-22T11:29:34;35.70;21.80
80495;DHT22;69819;48.798;11.770;2023-07-22T11:32:01;35.70;22.00
80495;DHT22;69819;48.798;11.770;2023-07-22T11:34:28;35.70;22.20
80495;DHT22;69819;48.798;11.770;2023-07-22T11:36:55;35.70;22.30
80495;DHT22;69819;48.798;11.770;2023-07-22T11:39:24;35.70;22.30
80495;DHT22;69819;48.798;11.770;2023-07-22T11:41:52;35.70;22.20
80495;DHT22;69819;48.798;11.770;2023-07-22T11:44:26;35.80;22.10
80495;DHT22;69819;48.798;11.770;2023-07-22T11:52:06;36.00;22.20
80495;DHT22;69819;48.798;11.770;2023-07-22T11:54:41;36.10;22.30
80495;DHT22;69819;48.798;11.770;2023-07-22T11:57:21;36.10;22.10
80495;DHT22;69819;48.798;11.770;2023-07-22T11:59:52;36.10;22.10
80495;DHT22;69819;48.798;11.770;2023-07-22T12:02:25;36.10;22.00
80495;DHT22;69819;48.798;11.770;2023-07-22T12:05:04;36.20;21.90
80495;DHT22;69819;48.798;11.770;2023-07-22T12:07:38;36.20;21.70
80495;DHT22;69819;48.798;11.770;2023-07-22T12:10:06;36.20;21.60
80495;DHT22;69819;48.798;11.770;2023-07-22T12:12:45;36.10;21.60
80495;DHT22;69819;48.798;11.770;2023-07-22T12:15:17;36.20;21.70
80495;DHT22;69819;48.798;11.770;2023-07-22T12:17:55;36.10;22.10
80495;DHT22;69819;48.798;11.770;2023-07-22T12:20:28;36.00;21.60
80495;DHT22;69819;48.798;11.770;2023-07-22T12:22:56;35.90;21.70
80495;DHT22;69819;48.798;11.770;2023-07-22T12:25:23;35.80;21.70
80495;DHT22;69819;48.798;11.770;2023-07-22T12:27:49;35.70;21.40
80495;DHT22;69819;48.798;11.770;2023-07-22T12:30:15;35.50;21.30
80495;DHT22;69819;48.798;11.770;2023-07-22T12:32:42;35.30;21.40
80495;DHT22;69819;48.798;11.770;2023-07-22T12:35:08;35.20;21.60
80495;DHT22;69819;48.798;11.770;2023-07-22T12:37:35;35.00;21.80
80495;DHT22;69819;48.798;11.770;2023-07-22T12:40:01;34.80;21.90
80495;DHT22;69819;48.798;11.770;2023-07-22T12:42:30;34.70;21.90
80495;DHT22;69819;48.798;11.770;2023-07-22T12:44:56;34.60;22.00
80495;DHT22;69819;48.798;11.770;2023-07-22T12:47:22;34.40;22.10
80495;DHT22;69819;48.798;11.770;2023-07-22T12:49:47;34.40;22.30
80495;DHT22;69819;48.798;11.770;2023-07-22T12:52:13;34.30;22.30
80495;DHT22;69819;48.798;11.770;2023-07-22T12:54:39;34.30;22.30
80495;DHT22;69819;48.798;11.770;2023-07-22T12:57:05;34.30;22.40
80495;DHT22;69819;48.798;11.770;2023-07-22T12:59:31;34.20;22.40
80495;DHT22;69819;48.798;11.770;2023-07-22T13:01:57;34.30;22.50
80495;DHT22;69819;48.798;11.770;2023-07-22T13:04:24;34.30;22.50
80495;DHT22;69819;48.798;11.770;2023-07-22T13:06:50;34.30;22.40
80495;DHT22;69819;48.798;11.770;2023-07-22T13:09:20;34.30;22.40
80495;DHT22;69819;48.798;11.770;2023-07-22T13:11:46;34.30;22.50
80495;DHT22;69819;48.798;11.770;2023-07-22T13:14:12;34.30;22.40
80495;DHT22;69819;48.798;11.770;2023-07-22T13:16:37;34.30;22.50
80495;DHT22;69819;48.798;11.770;2023-07-22T13:19:03;34.30;22.50
80495;DHT22;69819;48.798;11.770;2023-07-22T13:21:30;34.30;22.50
80495;DHT22;69819;48.798;11.770;2023-07-22T13:23:56;34.30;22.60
80495;DHT22;69819;48.798;11.770;2023-07-22T13:26:22;34.40;22.60
80495;DHT22;69819;48.798;11.770;2023-07-22T13:28:47;34.30;22.50
80495;DHT22;69819;48.798;11.770;2023-07-22T13:31:13;34.40;22.50
80495;DHT22;69819;48.798;11.770;2023-07-22T13:33:39;34.40;22.50
80495;DHT22;69819;48.798;11.770;2023-07-22T13:36:06;34.40;22.50
80495;DHT22;69819;48.798;11.770;2023-07-22T13:38:34;34.40;22.50
80495;DHT22;69819;48.798;11.770;2023-07-22T13:41:00;34.30;22.40
80495;DHT22;69819;48.798;11.770;2023-07-22T13:43:26;34.20;22.40
80495;DHT22;69819;48.798;11.770;2023-07-22T13:45:53;34.20;22.40
80495;DHT22;69819;48.798;11.770;2023-07-22T13:48:19;34.10;22.40
80495;DHT22;69819;48.798;11.770;2023-07-22T13:50:45;34.00;22.30
80495;DHT22;69819;48.798;11.770;2023-07-22T13:53:11;34.00;22.30
80495;DHT22;69819;48.798;11.770;2023-07-22T13:55:37;33.90;22.30
80495;DHT22;69819;48.798;11.770;2023-07-22T13:58:02;33.90;22.50
80495;DHT22;69819;48.798;11.770;2023-07-22T14:00:28;33.80;22.30
80495;DHT22;69819;48.798;11.770;2023-07-22T14:02:54;33.80;22.30
80495;DHT22;69819;48.798;11.770;2023-07-22T14:05:20;33.80;22.30
80495;DHT22;69819;48.798;11.770;2023-07-22T14:07:46;33.80;22.30
80495;DHT22;69819;48.798;11.770;2023-07-22T14:10:12;33.90;22.40
80495;DHT22;69819;48.798;11.770;2023-07-22T14:12:38;33.90;22.40
80495;DHT22;69819;48.798;11.770;2023-07-22T14:15:04;33.90;22.50
80495;DHT22;69819;48.798;11.770;2023-07-22T14:17:30;33.90;22.40
80495;DHT22;69819;48.798;11.770;2023-07-22T14:19:59;34.00;22.40
80495;DHT22;69819;48.798;11.770;2023-07-22T14:22:25;34.10;22.30
80495;DHT22;69819;48.798;11.770;2023-07-22T14:24:51;34.10;22.30
80495;DHT22;69819;48.798;11.770;2023-07-22T14:27:17;34.10;22.30
80495;DHT22;69819;48.798;11.770;2023-07-22T14:29:44;34.10;22.30
80495;DHT22;69819;48.798;11.770;2023-07-22T14:32:09;34.10;22.40
80495;DHT22;69819;48.798;11.770;2023-07-22T14:34:35;34.20;22.20
80495;DHT22;69819;48.798;11.770;2023-07-22T14:37:01;34.20;22.20
80495;DHT22;69819;48.798;11.770;2023-07-22T14:39:29;34.10;22.00
80495;DHT22;69819;48.798;11.770;2023-07-22T14:41:55;34.20;22.10
80495;DHT22;69819;48.798;11.770;2023-07-22T14:44:21;34.10;22.00
80495;DHT22;69819;48.798;11.770;2023-07-22T14:46:46;34.00;21.90
80495;DHT22;69819;48.798;11.770;2023-07-22T14:49:12;33.90;22.00
80495;DHT22;69819;48.798;11.770;2023-07-22T14:51:38;33.90;22.10
80495;DHT22;69819;48.798;11.770;2023-07-22T14:54:04;33.90;22.60
80495;DHT22;69819;48.798;11.770;2023-07-22T14:56:30;33.90;22.20
80495;DHT22;69819;48.798;11.770;2023-07-22T14:58:56;34.00;22.20
80495;DHT22;69819;48.798;11.770;2023-07-22T15:01:22;33.90;22.00
80495;DHT22;69819;48.798;11.770;2023-07-22T15:03:48;33.90;22.00
80495;DHT22;69819;48.798;11.770;2023-07-22T15:06:14;33.90;22.00
80495;DHT22;69819;48.798;11.770;2023-07-22T15:08:39;33.90;22.10
80495;DHT22;69819;48.798;11.770;2023-07-22T15:11:06;33.80;22.00
80495;DHT22;69819;48.798;11.770;2023-07-22T15:13:33;33.80;22.10
80495;DHT22;69819;48.798;11.770;2023-07-22T15:15:59;33.80;22.20
80495;DHT22;69819;48.798;11.770;2023-07-22T15:18:25;33.70;22.20
80495;DHT22;69819;48.798;11.770;2023-07-22T15:20:54;33.70;22.20
80495;DHT22;69819;48.798;11.770;2023-07-22T15:23:20;33.70;22.20
80495;DHT22;69819;48.798;11.770;2023-07-22T15:25:46;33.70;22.20
80495;DHT22;69819;48.798;11.770;2023-07-22T15:28:12;33.60;22.10
80495;DHT22;69819;48.798;11.770;2023-07-22T15:30:38;33.60;22.10
80495;DHT22;69819;48.798;11.770;2023-07-22T15:33:05;33.60;22.20
80495;DHT22;69819;48.798;11.770;2023-07-22T15:35:31;33.50;22.20
80495;DHT22;69819;48.798;11.770;2023-07-22T15:37:56;33.50;22.30
80495;DHT22;69819;48.798;11.770;2023-07-22T15:40:22;33.40;22.20